createdAt,value
2018-12-03T00:00:27.469Z,97.51
2018-12-03T00:02:59.501Z,97.66
2018-12-03T00:05:27.877Z,97.96
2018-12-03T00:07:56.127Z,98.01
2018-12-03T00:10:24.378Z,97.66
2018-12-03T00:12:52.634Z,97.73
2018-12-03T00:15:20.875Z,97.58
2018-12-03T00:17:49.142Z,98.03
2018-12-03T00:20:17.442Z,98.21
2018-12-03T00:22:45.716Z,98.32
2018-12-03T00:25:13.976Z,97.69
2018-12-03T00:27:48.550Z,97.85
2018-12-03T00:30:16.887Z,98.03
2018-12-03T00:32:45.167Z,98.11
2018-12-03T00:35:13.580Z,98.04
2018-12-03T00:37:41.841Z,97.78
2018-12-03T00:40:10.310Z,97.55
2018-12-03T00:42:38.550Z,98.28
2018-12-03T00:45:06.830Z,98.14
2018-12-03T00:47:35.068Z,97.64
2018-12-03T00:50:03.285Z,97.44
2018-12-03T00:52:31.569Z,97.46
2018-12-03T00:54:59.798Z,98.11
2018-12-03T00:57:28.084Z,97.61
2018-12-03T00:59:56.320Z,97.59
2018-12-03T01:02:26.355Z,98.45
2018-12-03T01:04:55.108Z,98.60
2018-12-03T01:07:23.544Z,98.91
2018-12-03T01:09:52.087Z,98.65
2018-12-03T01:12:20.347Z,97.92
2018-12-03T01:14:48.657Z,98.68
2018-12-03T01:17:16.894Z,98.67
2018-12-03T01:19:45.167Z,98.67
2018-12-03T01:22:13.469Z,98.78
2018-12-03T01:24:41.871Z,99.00
2018-12-03T01:27:10.133Z,98.75
2018-12-03T01:29:38.359Z,99.17
2018-12-03T01:32:06.614Z,99.52
2018-12-03T01:34:34.880Z,99.27
2018-12-03T01:37:03.213Z,99.38
2018-12-03T01:39:31.453Z,99.02
2018-12-03T01:41:59.679Z,98.88
2018-12-03T01:44:27.905Z,99.10
2018-12-03T01:46:56.132Z,99.37
2018-12-03T01:49:24.371Z,99.34
2018-12-03T01:51:52.668Z,99.58
2018-12-03T01:54:20.894Z,99.76
2018-12-03T01:56:49.133Z,99.60
2018-12-03T01:59:17.382Z,99.31
2018-12-03T02:01:45.662Z,99.55
2018-12-03T02:04:13.885Z,99.28
2018-12-03T02:06:42.167Z,99.25
2018-12-03T02:09:10.431Z,99.43
2018-12-03T02:11:38.677Z,99.88
2018-12-03T02:14:07.421Z,99.30
2018-12-03T02:16:35.691Z,99.28
2018-12-03T02:19:03.989Z,98.99
2018-12-03T02:21:32.233Z,99.07
2018-12-03T02:24:00.589Z,99.38
2018-12-03T02:26:28.832Z,99.32
2018-12-03T02:28:57.063Z,98.72
2018-12-03T02:31:25.351Z,98.91
2018-12-03T02:33:53.809Z,98.62
2018-12-03T02:36:22.058Z,99.43
2018-12-03T02:38:50.294Z,99.05
2018-12-03T02:41:18.535Z,98.41
2018-12-03T02:43:46.852Z,98.80
2018-12-03T02:46:15.067Z,99.02
2018-12-03T02:48:43.302Z,98.44
2018-12-03T02:51:11.551Z,98.40
2018-12-03T02:53:39.812Z,98.33
2018-12-03T02:56:08.009Z,98.83
2018-12-03T02:58:36.292Z,98.11
2018-12-03T03:01:07.440Z,98.51
2018-12-03T03:03:35.713Z,98.31
2018-12-03T03:06:03.983Z,97.44
2018-12-03T03:08:32.263Z,97.82
2018-12-03T03:11:00.559Z,98.38
2018-12-03T03:13:28.800Z,98.06
2018-12-03T03:15:57.079Z,98.08
2018-12-03T03:18:25.307Z,97.94
2018-12-03T03:20:53.554Z,98.01
2018-12-03T03:23:21.789Z,97.88
2018-12-03T03:25:50.088Z,97.67
2018-12-03T03:28:18.319Z,97.42
2018-12-03T03:30:46.553Z,97.70
2018-12-03T03:33:14.866Z,96.97
2018-12-03T03:35:43.114Z,97.63
2018-12-03T03:38:11.402Z,96.70
2018-12-03T03:40:39.723Z,97.33
2018-12-03T03:43:08.058Z,97.39
2018-12-03T03:45:36.351Z,97.21
2018-12-03T03:48:04.870Z,97.71
2018-12-03T03:50:33.177Z,96.76
2018-12-03T03:53:01.491Z,97.28
2018-12-03T03:55:29.804Z,97.97
2018-12-03T03:57:58.137Z,97.74
2018-12-03T04:00:26.443Z,98.48
2018-12-03T04:02:54.707Z,98.00
2018-12-03T04:05:22.997Z,98.30
2018-12-03T04:07:51.359Z,98.52
2018-12-03T04:10:19.847Z,98.53
2018-12-03T04:12:48.153Z,98.12
2018-12-03T04:15:16.878Z,98.96
2018-12-03T04:17:45.345Z,98.83
2018-12-03T04:20:15.691Z,98.44
2018-12-03T04:22:45.333Z,98.79
2018-12-03T04:25:13.946Z,99.13
2018-12-03T04:27:42.219Z,99.31
2018-12-03T04:30:13.102Z,99.08
2018-12-03T04:32:41.529Z,99.53
2018-12-03T04:35:10.339Z,99.28
2018-12-03T04:37:38.639Z,99.32
2018-12-03T04:40:11.269Z,99.48
2018-12-03T04:42:39.577Z,99.61
2018-12-03T04:45:11.096Z,99.17
2018-12-03T04:47:39.371Z,99.29
2018-12-03T04:50:15.608Z,99.24
2018-12-03T04:52:43.888Z,99.09
2018-12-03T04:55:12.992Z,98.64
2018-12-03T04:57:41.265Z,98.61
2018-12-03T05:00:16.551Z,98.25
2018-12-03T05:02:45.925Z,99.11
2018-12-03T05:05:14.237Z,98.71
2018-12-03T05:07:42.527Z,98.31
2018-12-03T05:10:13.016Z,98.70
2018-12-03T05:12:41.458Z,98.32
2018-12-03T05:15:10.732Z,98.08
2018-12-03T05:17:39.320Z,98.17
2018-12-03T05:20:09.321Z,98.30
2018-12-03T05:22:37.596Z,98.08
2018-12-03T05:25:06.909Z,97.80
2018-12-03T05:27:35.177Z,97.96
2018-12-03T05:30:03.779Z,97.51
2018-12-03T05:32:32.017Z,97.97
2018-12-03T05:35:00.261Z,97.76
2018-12-03T05:37:28.482Z,98.17
2018-12-03T05:39:56.709Z,97.80
2018-12-03T05:42:24.965Z,97.81
2018-12-03T05:44:53.225Z,98.15
2018-12-03T05:47:21.490Z,97.64
2018-12-03T05:49:49.681Z,97.12
2018-12-03T05:52:17.960Z,97.05
2018-12-03T05:54:46.203Z,97.75
2018-12-03T05:57:14.460Z,97.15
2018-12-03T05:59:42.681Z,97.16
2018-12-03T06:02:11.004Z,97.38
2018-12-03T06:04:39.281Z,96.51
2018-12-03T06:07:07.477Z,96.45
2018-12-03T06:09:35.734Z,96.73
2018-12-03T06:12:03.995Z,96.42
2018-12-03T06:14:32.265Z,96.23
2018-12-03T06:17:00.487Z,96.01
2018-12-03T06:19:28.721Z,95.87
2018-12-03T06:21:56.972Z,95.59
2018-12-03T06:24:25.244Z,95.33
2018-12-03T06:26:53.530Z,94.79
2018-12-03T06:29:21.788Z,95.13
2018-12-03T06:31:50.019Z,94.80
2018-12-03T06:34:19.062Z,94.82
2018-12-03T06:36:46.562Z,94.04
2018-12-03T06:39:14.811Z,94.60
2018-12-03T06:41:43.055Z,94.80
2018-12-03T06:44:11.345Z,94.18
2018-12-03T06:46:39.603Z,94.47
2018-12-03T06:49:07.860Z,94.37
2018-12-03T06:51:36.181Z,93.69
2018-12-03T06:54:04.457Z,94.09
2018-12-03T06:56:32.738Z,93.74
2018-12-03T06:59:00.978Z,93.30
2018-12-03T07:01:29.241Z,93.62
2018-12-03T07:03:57.508Z,93.32
2018-12-03T07:06:25.722Z,93.39
2018-12-03T07:08:54.099Z,93.69
2018-12-03T07:11:22.354Z,93.51
2018-12-03T07:13:50.654Z,93.41
2018-12-03T07:16:18.898Z,93.90
2018-12-03T07:18:47.187Z,94.10
2018-12-03T07:21:15.430Z,93.89
2018-12-03T07:23:43.701Z,93.52
2018-12-03T07:26:11.938Z,93.25
2018-12-03T07:28:40.179Z,93.15
2018-12-03T07:31:08.440Z,92.73
2018-12-03T07:33:36.755Z,92.60
2018-12-03T07:36:05.460Z,92.98
2018-12-03T07:38:33.772Z,93.08
2018-12-03T07:41:02.002Z,92.73
2018-12-03T07:43:30.268Z,92.46
2018-12-03T07:45:58.531Z,93.04
2018-12-03T07:48:26.761Z,92.75
2018-12-03T07:50:55.090Z,92.05
2018-12-03T07:53:23.329Z,92.16
2018-12-03T07:55:51.602Z,92.04
2018-12-03T07:58:21.350Z,92.48
2018-12-03T08:00:54.135Z,92.13
2018-12-03T08:03:22.694Z,92.15
2018-12-03T08:05:50.945Z,92.06
2018-12-03T08:08:19.255Z,91.70
2018-12-03T08:10:49.309Z,91.88
2018-12-03T08:13:18.427Z,91.84
2018-12-03T08:15:46.659Z,91.38
2018-12-03T08:18:16.685Z,91.25
2018-12-03T08:20:50.062Z,91.17
2018-12-03T08:23:22.357Z,90.65
2018-12-03T08:25:50.629Z,91.54
2018-12-03T08:28:18.856Z,90.73
2018-12-03T08:30:47.121Z,90.78
2018-12-03T08:33:15.389Z,90.80
2018-12-03T08:35:43.809Z,91.34
2018-12-03T08:38:12.060Z,90.49
2018-12-03T08:40:40.340Z,90.52
2018-12-03T08:43:08.647Z,91.01
2018-12-03T08:45:36.886Z,90.64
2018-12-03T08:48:05.192Z,90.89
2018-12-03T08:50:33.460Z,91.34
2018-12-03T08:53:01.776Z,91.15
2018-12-03T08:55:30.108Z,91.13
2018-12-03T08:57:58.322Z,90.16
2018-12-03T09:00:29.807Z,89.63
2018-12-03T09:03:03.512Z,89.41
2018-12-03T09:05:33.064Z,88.78
2018-12-03T09:08:01.340Z,88.72
2018-12-03T09:10:29.650Z,88.09
2018-12-03T09:12:58.948Z,88.24
2018-12-03T09:15:27.187Z,87.97
2018-12-03T09:17:55.498Z,88.51
2018-12-03T09:20:23.755Z,88.77
2018-12-03T09:22:52.019Z,88.56
2018-12-03T09:25:24.161Z,87.79
2018-12-03T09:27:52.405Z,87.61
2018-12-03T09:30:20.636Z,87.65
2018-12-03T09:32:48.903Z,87.36
2018-12-03T09:35:17.195Z,86.48
2018-12-03T09:37:45.448Z,86.11
2018-12-03T09:40:23.770Z,86.01
2018-12-03T09:42:52.394Z,84.75
2018-12-03T09:45:20.629Z,85.04
2018-12-03T09:47:49.517Z,84.41
2018-12-03T09:50:19.980Z,84.77
2018-12-03T09:52:48.340Z,84.23
2018-12-03T09:55:24.911Z,83.83
2018-12-03T09:58:00.827Z,83.30
2018-12-03T10:00:29.089Z,83.82
2018-12-03T10:02:59.048Z,83.52
2018-12-03T10:05:31.133Z,84.42
2018-12-03T10:07:59.372Z,84.23
2018-12-03T10:10:27.648Z,84.20
2018-12-03T10:12:55.932Z,83.48
2018-12-03T10:15:28.218Z,83.48
2018-12-03T10:17:58.160Z,83.79
2018-12-03T10:20:26.501Z,84.59
2018-12-03T10:22:54.758Z,84.44
2018-12-03T10:25:23.030Z,84.33
2018-12-03T10:27:51.269Z,84.73
2018-12-03T10:30:20.806Z,84.18
2018-12-03T10:32:51.487Z,84.04
2018-12-03T10:35:19.778Z,83.51
2018-12-03T10:37:48.348Z,83.25
2018-12-03T10:40:18.869Z,82.71
2018-12-03T10:42:48.203Z,83.07
2018-12-03T10:45:19.308Z,83.04
2018-12-03T10:47:47.589Z,82.90
2018-12-03T10:50:22.217Z,82.89
2018-12-03T10:52:47.296Z,82.73
2018-12-03T10:55:15.569Z,82.89
2018-12-03T10:57:45.114Z,83.06
2018-12-03T11:00:22.799Z,82.62
2018-12-03T11:02:58.115Z,82.45
2018-12-03T11:05:33.321Z,82.65
2018-12-03T11:08:01.571Z,81.47
2018-12-03T11:10:35.270Z,80.94
2018-12-03T11:13:03.476Z,81.68
2018-12-03T11:15:31.830Z,81.99
2018-12-03T11:18:01.041Z,80.86
2018-12-03T11:21:58.607Z,80.68
2018-12-03T11:24:26.054Z,79.93
2018-12-03T11:26:53.628Z,80.22
2018-12-03T11:29:21.390Z,79.31
2018-12-03T11:31:48.854Z,78.42
2018-12-03T11:34:17.132Z,79.03
2018-12-03T11:36:44.560Z,78.95
2018-12-03T11:39:12.045Z,78.61
2018-12-03T11:41:39.481Z,78.54
2018-12-03T11:44:06.964Z,79.20
2018-12-03T11:46:35.246Z,79.44
2018-12-03T11:49:02.696Z,79.49
2018-12-03T11:51:30.102Z,78.77
2018-12-03T11:53:57.590Z,80.09
2018-12-03T11:56:25.145Z,80.36
2018-12-03T11:58:52.579Z,80.20
2018-12-03T12:01:20.010Z,80.57
2018-12-03T12:03:47.532Z,80.84
2018-12-03T12:06:14.990Z,79.71
2018-12-03T12:08:42.401Z,79.85
2018-12-03T12:11:09.870Z,80.37
2018-12-03T12:13:37.339Z,80.49
2018-12-03T12:16:05.006Z,80.32
2018-12-03T12:18:32.414Z,80.69
2018-12-03T12:20:59.852Z,80.27
2018-12-03T12:23:27.285Z,80.91
2018-12-03T12:25:54.703Z,81.17
2018-12-03T12:28:22.188Z,81.72
2018-12-03T12:30:49.652Z,81.45
2018-12-03T12:33:18.166Z,82.02
2018-12-03T12:35:45.813Z,82.95
2018-12-03T12:38:13.284Z,83.03
2018-12-03T12:40:40.806Z,84.36
2018-12-03T12:43:08.233Z,84.93
2018-12-03T12:45:35.740Z,86.72
2018-12-03T12:48:03.263Z,86.58
2018-12-03T12:50:30.733Z,87.37
2018-12-03T12:52:58.205Z,87.90
2018-12-03T12:55:25.636Z,87.08
2018-12-03T12:57:53.077Z,87.60
2018-12-03T13:00:20.580Z,88.27
2018-12-03T13:02:48.008Z,88.21
2018-12-03T13:05:15.624Z,88.07
2018-12-03T13:07:43.121Z,88.09
2018-12-03T13:10:10.715Z,88.59
2018-12-03T13:12:38.155Z,88.47
2018-12-03T13:15:07.660Z,88.01
2018-12-03T13:17:35.073Z,88.02
2018-12-03T13:20:02.581Z,86.95
2018-12-03T13:22:33.520Z,86.94
2018-12-03T13:25:00.979Z,86.48
2018-12-03T13:27:28.529Z,87.38
2018-12-03T13:29:55.989Z,87.34
2018-12-03T13:32:23.451Z,88.56
2018-12-03T13:34:50.904Z,88.02
2018-12-03T13:37:18.362Z,89.02
2018-12-03T13:39:45.812Z,89.99
2018-12-03T13:42:13.219Z,89.74
2018-12-03T13:44:40.631Z,90.69
2018-12-03T13:47:08.082Z,90.50
2018-12-03T13:49:35.501Z,90.44
2018-12-03T13:52:02.944Z,90.81
2018-12-03T13:54:30.450Z,91.87
2018-12-03T13:56:57.872Z,91.49
2018-12-03T13:59:25.366Z,92.40
2018-12-03T14:01:52.793Z,92.33
2018-12-03T14:04:22.188Z,92.71
2018-12-03T14:06:49.656Z,93.53
2018-12-03T14:09:17.153Z,93.69
2018-12-03T14:11:44.712Z,93.40
2018-12-03T14:14:12.946Z,93.91
2018-12-03T14:16:42.814Z,94.37
2018-12-03T14:19:10.450Z,94.54
2018-12-03T14:21:37.933Z,94.34
2018-12-03T14:24:06.020Z,94.39
2018-12-03T14:26:33.541Z,95.40
2018-12-03T14:29:00.971Z,95.52
2018-12-03T14:31:28.468Z,95.03
2018-12-03T14:33:55.888Z,95.20
2018-12-03T14:36:23.325Z,95.21
2018-12-03T14:38:50.742Z,95.71
2018-12-03T14:41:18.182Z,95.38
2018-12-03T14:43:45.643Z,95.81
2018-12-03T14:46:13.125Z,95.91
2018-12-03T14:48:40.568Z,95.51
2018-12-03T14:51:07.986Z,96.39
2018-12-03T14:53:35.483Z,96.09
2018-12-03T14:56:02.917Z,96.20
2018-12-03T14:58:30.389Z,95.60
2018-12-03T15:00:57.952Z,96.03
2018-12-03T15:03:25.395Z,95.72
2018-12-03T15:05:52.967Z,96.29
2018-12-03T15:08:20.379Z,96.12
2018-12-03T15:10:47.801Z,96.18
2018-12-03T15:13:15.231Z,95.96
2018-12-03T15:15:42.702Z,96.69
2018-12-03T15:18:10.131Z,96.63
2018-12-03T15:20:37.568Z,96.02
2018-12-03T15:23:05.003Z,96.88
2018-12-03T15:25:32.439Z,96.59
2018-12-03T15:27:59.971Z,96.40
2018-12-03T15:30:27.415Z,96.43
2018-12-03T15:32:54.835Z,96.39
2018-12-03T15:35:22.341Z,96.88
2018-12-03T15:37:49.775Z,96.09
2018-12-03T15:40:17.341Z,96.48
2018-12-03T15:42:44.811Z,96.50
2018-12-03T15:45:12.253Z,96.44
2018-12-03T15:47:39.728Z,96.97
2018-12-03T15:50:07.300Z,96.54
2018-12-03T15:52:34.721Z,96.75
2018-12-03T15:55:02.316Z,96.72
2018-12-03T15:57:29.768Z,96.51
2018-12-03T15:59:57.210Z,96.55
2018-12-03T16:02:24.713Z,96.60
2018-12-03T16:04:52.271Z,96.47
2018-12-03T16:07:19.694Z,96.71
2018-12-03T16:09:47.120Z,96.36
2018-12-03T16:12:14.604Z,96.13
2018-12-03T16:14:42.020Z,96.42
2018-12-03T16:17:09.468Z,97.11
2018-12-03T16:19:36.980Z,96.83
2018-12-03T16:22:04.522Z,96.93
2018-12-03T16:24:31.992Z,96.75
2018-12-03T16:26:59.435Z,96.66
2018-12-03T16:29:26.917Z,96.53
2018-12-03T16:31:54.510Z,96.88
2018-12-03T16:34:21.947Z,96.41
2018-12-03T16:36:49.501Z,96.23
2018-12-03T16:39:16.905Z,96.90
2018-12-03T16:41:44.319Z,96.62
2018-12-03T16:44:11.741Z,96.67
2018-12-03T16:46:39.198Z,95.82
2018-12-03T16:49:06.638Z,96.26
2018-12-03T16:51:34.058Z,95.76
2018-12-03T16:54:01.479Z,95.95
2018-12-03T16:56:28.926Z,96.29
2018-12-03T16:58:56.353Z,96.87
2018-12-03T17:01:23.929Z,96.35
2018-12-03T17:03:51.396Z,96.44
2018-12-03T17:06:18.823Z,96.66
2018-12-03T17:08:46.312Z,96.86
2018-12-03T17:11:13.780Z,95.98
2018-12-03T17:13:41.218Z,96.37
2018-12-03T17:16:08.640Z,96.56
2018-12-03T17:18:36.212Z,96.65
2018-12-03T17:21:03.732Z,96.96
2018-12-03T17:23:31.397Z,97.07
2018-12-03T17:25:58.920Z,97.10
2018-12-03T17:28:26.678Z,96.86
2018-12-03T17:30:54.138Z,97.14
2018-12-03T17:33:21.566Z,96.97
2018-12-03T17:35:49.153Z,96.90
2018-12-03T17:38:16.631Z,97.45
2018-12-03T17:40:44.055Z,96.63
2018-12-03T17:43:11.515Z,97.00
2018-12-03T17:45:38.997Z,97.00
2018-12-03T17:48:06.417Z,97.31
2018-12-03T17:50:33.848Z,97.51
2018-12-03T17:53:01.377Z,97.40
2018-12-03T17:55:28.834Z,96.71
2018-12-03T17:57:56.284Z,96.51
2018-12-03T18:00:23.723Z,97.00
2018-12-03T18:02:51.152Z,96.65
2018-12-03T18:05:18.589Z,96.35
2018-12-03T18:07:46.010Z,96.40
2018-12-03T18:10:13.571Z,95.94
2018-12-03T18:12:41.025Z,96.39
2018-12-03T18:15:08.579Z,96.44
2018-12-03T18:17:36.125Z,96.46
2018-12-03T18:20:04.306Z,96.58
2018-12-03T18:22:31.777Z,96.33
2018-12-03T18:24:59.208Z,96.19
2018-12-03T18:27:26.627Z,95.56
2018-12-03T18:29:54.138Z,95.99
2018-12-03T18:32:21.558Z,95.36
2018-12-03T18:34:49.043Z,96.05
2018-12-03T18:37:16.468Z,95.55
2018-12-03T18:39:43.930Z,96.38
2018-12-03T18:42:11.345Z,95.85
2018-12-03T18:44:38.773Z,95.78
2018-12-03T18:47:06.344Z,96.31
2018-12-03T18:49:33.810Z,96.33
2018-12-03T18:52:01.353Z,96.41
2018-12-03T18:54:28.810Z,95.76
2018-12-03T18:56:56.279Z,96.40
2018-12-03T18:59:23.733Z,96.31
2018-12-03T19:01:51.169Z,96.03
2018-12-03T19:04:18.629Z,96.29
2018-12-03T19:06:46.088Z,95.49
2018-12-03T19:09:13.574Z,95.72
2018-12-03T19:11:41.006Z,96.37
2018-12-03T19:14:08.490Z,96.27
2018-12-03T19:16:36.027Z,95.71
2018-12-03T19:19:03.451Z,95.50
2018-12-03T19:21:30.949Z,95.59
2018-12-03T19:23:58.415Z,95.02
2018-12-03T19:26:25.852Z,95.76
2018-12-03T19:28:53.289Z,95.41
2018-12-03T19:31:20.780Z,95.69
2018-12-03T19:33:48.330Z,95.38
2018-12-03T19:36:15.754Z,95.91
2018-12-03T19:38:43.247Z,95.92
2018-12-03T19:41:10.712Z,95.46
2018-12-03T19:43:38.164Z,95.74
2018-12-03T19:46:05.590Z,95.99
2018-12-03T19:48:33.038Z,95.56
2018-12-03T19:51:00.544Z,96.08
2018-12-03T19:53:27.992Z,96.31
2018-12-03T19:55:55.443Z,95.95
2018-12-03T19:58:23.008Z,96.38
2018-12-03T20:00:50.438Z,95.89
2018-12-03T20:03:17.930Z,95.37
2018-12-03T20:05:45.489Z,95.31
2018-12-03T20:08:12.923Z,95.46
2018-12-03T20:10:40.355Z,95.45
2018-12-03T20:13:07.844Z,95.17
2018-12-03T20:15:35.268Z,95.91
2018-12-03T20:18:02.750Z,95.28
2018-12-03T20:20:30.414Z,96.11
2018-12-03T20:22:57.913Z,96.16
2018-12-03T20:25:25.372Z,95.66
2018-12-03T20:27:52.908Z,96.02
2018-12-03T20:30:24.236Z,96.02
2018-12-03T20:32:51.998Z,95.77
2018-12-03T20:35:19.457Z,96.03
2018-12-03T20:37:46.956Z,96.20
2018-12-03T20:40:16.194Z,96.83
2018-12-03T20:42:43.788Z,96.65
2018-12-03T20:45:17.915Z,97.22
2018-12-03T20:47:46.612Z,97.04
2018-12-03T20:50:15.869Z,97.09
2018-12-03T20:52:47.452Z,96.36
2018-12-03T20:55:14.878Z,96.74
2018-12-03T20:57:42.451Z,97.06
2018-12-03T21:00:10.716Z,96.46
2018-12-03T21:02:38.201Z,97.13
2018-12-03T21:05:06.045Z,96.94
2018-12-03T21:07:33.478Z,96.45
2018-12-03T21:10:00.905Z,97.00
2018-12-03T21:12:28.317Z,97.04
2018-12-03T21:14:55.757Z,96.95
2018-12-03T21:17:23.179Z,96.60
2018-12-03T21:19:52.020Z,96.50
2018-12-03T21:22:19.446Z,96.45
2018-12-03T21:24:46.897Z,97.01
2018-12-03T21:27:14.319Z,97.06
2018-12-03T21:29:41.738Z,96.98
2018-12-03T21:32:09.178Z,97.00
2018-12-03T21:34:36.600Z,96.21
2018-12-03T21:37:04.105Z,96.53
2018-12-03T21:39:31.522Z,96.69
2018-12-03T21:41:58.959Z,96.93
2018-12-03T21:44:26.386Z,97.29
2018-12-03T21:46:53.829Z,96.60
2018-12-03T21:49:21.270Z,97.61
2018-12-03T21:51:48.762Z,97.00
2018-12-03T21:54:16.202Z,96.92
2018-12-03T21:56:43.665Z,97.78
2018-12-03T21:59:11.118Z,97.58
2018-12-03T22:01:38.650Z,97.78
2018-12-03T22:04:06.159Z,97.69
2018-12-03T22:06:33.648Z,97.54
2018-12-03T22:09:01.152Z,97.91
2018-12-03T22:11:28.623Z,97.38
2018-12-03T22:13:56.080Z,97.76
2018-12-03T22:16:23.529Z,97.30
2018-12-03T22:18:51.181Z,97.64
2018-12-03T22:21:18.643Z,97.33
2018-12-03T22:23:46.119Z,97.81
2018-12-03T22:26:13.558Z,97.67
2018-12-03T22:28:41.023Z,97.74
2018-12-03T22:31:08.470Z,97.04
2018-12-03T22:33:35.911Z,97.76
2018-12-03T22:36:03.383Z,97.17
2018-12-03T22:38:30.848Z,97.77
2018-12-03T22:40:58.297Z,96.74
2018-12-03T22:43:25.770Z,96.84
2018-12-03T22:45:53.207Z,97.15
2018-12-03T22:48:20.640Z,96.87
2018-12-03T22:50:48.136Z,96.57
2018-12-03T22:53:15.552Z,97.06
2018-12-03T22:55:42.960Z,96.78
2018-12-03T22:58:10.411Z,96.92
2018-12-03T23:00:38.181Z,96.38
2018-12-03T23:03:05.657Z,96.08
2018-12-03T23:05:33.066Z,95.45
2018-12-03T23:08:00.503Z,95.80
2018-12-03T23:10:27.918Z,96.68
2018-12-03T23:12:55.379Z,96.90
2018-12-03T23:15:22.868Z,96.71
2018-12-03T23:17:50.377Z,96.42
2018-12-03T23:20:17.813Z,97.21
2018-12-03T23:22:45.240Z,96.91
2018-12-03T23:25:12.737Z,96.78
2018-12-03T23:27:40.190Z,97.19
2018-12-03T23:30:07.723Z,97.09
2018-12-03T23:32:35.212Z,96.61
2018-12-03T23:35:02.663Z,97.04
2018-12-03T23:37:30.221Z,96.55
2018-12-03T23:39:57.693Z,96.47
2018-12-03T23:42:25.144Z,96.21
2018-12-03T23:44:52.597Z,94.76
2018-12-03T23:47:20.069Z,94.65
2018-12-03T23:49:47.617Z,94.97
2018-12-03T23:52:15.068Z,94.24
2018-12-03T23:54:42.487Z,93.87
2018-12-03T23:57:09.981Z,94.39
2018-12-03T23:59:37.717Z,93.76
